Fn204 Danzig — 5QEP — position and weather

sailwx.info

Track history (hours):
 
Tides and Currents Weather Stations Pressure Air Temp Water Temp Dewpoint Dewpoint Depression Visibility Wind Speed Wind Dir Waves Ship Positions

Fn204 Danzig

Last reported at 2018-Feb-23 18:55 UTC. Time now 2018-Feb-24 09:57 UTC.
Position N 57°19' E 011°08'.

Length 16 m.

Type: Fishing. MMSI: 220046000.

Date/timePositionNaut miles runAvg speedWind from/ knotsBaromVisibWave heightAir tempDewpointWater temp
2018-Feb-23 18:55N 57°19' E 011°08'1 2.3
2018-Feb-23 18:25N 57°20' E 011°08'3 7.0
2018-Feb-23 18:00N 57°22' E 011°13'3 5.7
2018-Feb-23 17:30N 57°22' E 011°18'3 5.4
2018-Feb-23 17:00N 57°23' E 011°23'3 5.4
2018-Feb-23 16:30N 57°24' E 011°28'1 2.3
2018-Feb-23 16:00N 57°23' E 011°30'1 1.9
2018-Feb-23 15:30N 57°23' E 011°30'1 2.5
2018-Feb-23 15:00N 57°21' E 011°31'1 2.4
2018-Feb-23 14:30N 57°21' E 011°33'1 2.3
2018-Feb-23 14:00N 57°19' E 011°33'1 2.5
2018-Feb-23 13:30N 57°19' E 011°31'1 2.5
2018-Feb-23 13:00N 57°18' E 011°29'1 2.4
2018-Feb-23 12:30N 57°17' E 011°30'1 2.4
2018-Feb-23 12:00N 57°16' E 011°29'1 1.7
2018-Feb-23 11:29N 57°15' E 011°28'1 1.3
2018-Feb-23 11:00N 57°15' E 011°27'1 2.5
2018-Feb-23 10:27N 57°14' E 011°26'2 2.1
2018-Feb-23 09:17N 57°12' E 011°29'3 1.6
2018-Feb-23 07:36N 57°14' E 011°26'0 2.6
2018-Feb-23 07:29N 57°14' E 011°26'1 1.2
2018-Feb-23 06:38N 57°15' E 011°25'0 2.5
2018-Feb-23 06:26N 57°15' E 011°24'4 4.0
2018-Feb-23 05:27N 57°17' E 011°18'6 7.1
2018-Feb-23 04:39N 57°20' E 011°10'1 7.0
2018-Feb-23 04:30N 57°20' E 011°08'1 0.1
2018-Feb-22 17:48N 57°21' E 011°09'2 7.9
2018-Feb-22 17:30N 57°22' E 011°14'4 8.0
2018-Feb-22 17:00N 57°23' E 011°21'4 7.8
2018-Feb-22 16:30N 57°24' E 011°28'1 2.3
2018-Feb-22 16:00N 57°24' E 011°30'1 2.4
2018-Feb-22 15:30N 57°23' E 011°30'1 2.5
2018-Feb-22 15:00N 57°22' E 011°31'1 2.5
2018-Feb-22 14:30N 57°21' E 011°32'1 2.4
2018-Feb-22 14:00N 57°20' E 011°33'1 2.5
2018-Feb-22 13:30N 57°19' E 011°33'1 2.5
2018-Feb-22 13:00N 57°17' E 011°32'1 2.5
2018-Feb-22 12:30N 57°16' E 011°31'1 2.5
2018-Feb-22 12:00N 57°15' E 011°29'1 1.9
2018-Feb-22 11:30N 57°15' E 011°28'1 1.8
2018-Feb-22 10:48N 57°15' E 011°26'1 2.5
2018-Feb-22 10:30N 57°15' E 011°24'2 2.5
2018-Feb-22 09:47N 57°13' E 011°23'1 2.5
2018-Feb-22 09:30N 57°13' E 011°24'1 2.2
2018-Feb-22 08:49N 57°13' E 011°26'1 2.6
2018-Feb-22 08:26N 57°14' E 011°27'2 2.6
2018-Feb-22 07:42N 57°15' E 011°29'0 1.7
2018-Feb-22 07:30N 57°16' E 011°29'2 2.3
2018-Feb-22 06:35N 57°15' E 011°26'0 2.5
2018-Feb-22 06:29N 57°15' E 011°25'1 2.6
2018-Feb-22 05:59N 57°14' E 011°23'10 6.8
2018-Feb-22 04:28N 57°21' E 011°09'0 0.0
2018-Feb-21 18:01N 57°20' E 011°09'0 8.4
2018-Feb-21 18:00N 57°20' E 011°09'5 8.1
2018-Feb-21 17:25N 57°18' E 011°17'4 7.8
2018-Feb-21 16:57N 57°17' E 011°23'3 6.2
2018-Feb-21 16:28N 57°16' E 011°28'1 1.3
2018-Feb-21 16:00N 57°15' E 011°28'1 2.4
2018-Feb-21 15:28N 57°15' E 011°26'1 2.3
2018-Feb-21 14:54N 57°14' E 011°24'1 2.4
2018-Feb-21 14:25N 57°13' E 011°23'2 1.7
2018-Feb-21 13:12N 57°14' E 011°26'1 2.5
2018-Feb-21 13:00N 57°14' E 011°27'1 2.5
2018-Feb-21 12:30N 57°15' E 011°29'0 0.9
2018-Feb-21 12:00N 57°15' E 011°29'2 1.4
2018-Feb-21 10:48N 57°15' E 011°26'1 2.5
2018-Feb-21 10:30N 57°15' E 011°24'2 2.4
2018-Feb-21 09:50N 57°13' E 011°23'1 2.2
2018-Feb-21 09:27N 57°13' E 011°24'2 2.2
2018-Feb-21 08:21N 57°14' E 011°27'1 2.5
2018-Feb-21 08:00N 57°15' E 011°28'1 1.9
2018-Feb-21 07:30N 57°16' E 011°29'2 2.3
2018-Feb-21 06:37N 57°15' E 011°26'0 2.5
2018-Feb-21 06:28N 57°15' E 011°25'1 2.5
2018-Feb-21 05:58N 57°14' E 011°23'4 6.5
2018-Feb-21 05:22N 57°17' E 011°18'4 7.6
2018-Feb-21 04:47N 57°20' E 011°13'2 7.7
2018-Feb-21 04:30N 57°21' E 011°09'1 0.0
2018-Feb-20 17:41N 57°21' E 011°10'2 7.8
2018-Feb-20 17:29N 57°21' E 011°13'4 8.2
2018-Feb-20 17:00N 57°21' E 011°20'4 7.8
2018-Feb-20 16:30N 57°20' E 011°27'1 2.4
2018-Feb-20 16:00N 57°20' E 011°29'1 2.5
2018-Feb-20 15:30N 57°20' E 011°31'1 2.4
2018-Feb-20 15:00N 57°19' E 011°33'1 2.6
2018-Feb-20 14:30N 57°18' E 011°35'1 2.6
2018-Feb-20 14:00N 57°17' E 011°37'1 2.5
2018-Feb-20 13:30N 57°16' E 011°38'1 2.5
2018-Feb-20 13:00N 57°15' E 011°37'2 2.0
2018-Feb-20 11:50N 57°15' E 011°33'0 0.3
2018-Feb-20 11:30N 57°15' E 011°33'2 2.3
2018-Feb-20 10:50N 57°14' E 011°36'1 2.5
2018-Feb-20 10:30N 57°15' E 011°37'1 2.6
2018-Feb-20 10:00N 57°16' E 011°38'3 2.5
2018-Feb-20 08:44N 57°18' E 011°35'1 2.6
2018-Feb-20 08:30N 57°19' E 011°34'1 2.6
2018-Feb-20 07:59N 57°20' E 011°32'1 2.5
2018-Feb-20 07:30N 57°20' E 011°30'1 2.6
2018-Feb-20 07:00N 57°21' E 011°28'1 2.5
2018-Feb-20 06:30N 57°21' E 011°26'1 2.5
2018-Feb-20 06:00N 57°21' E 011°23'1 2.4
2018-Feb-20 05:30N 57°21' E 011°21'4 6.7
2018-Feb-20 04:55N 57°21' E 011°14'3 6.7
2018-Feb-20 04:29N 57°21' E 011°09'1 2.9
2018-Feb-20 04:00N 57°19' E 011°08'0 0.0
2018-Feb-19 22:05N 57°19' E 011°08'2 0.4
2018-Feb-19 17:35N 57°20' E 011°10'1 8.4
2018-Feb-19 17:30N 57°20' E 011°11'4 8.6
2018-Feb-19 17:00N 57°18' E 011°18'5 8.6
2018-Feb-19 16:26N 57°15' E 011°25'1 3.1
2018-Feb-19 15:59N 57°14' E 011°27'2 2.3
2018-Feb-19 15:10N 57°13' E 011°29'0 2.6
2018-Feb-19 15:00N 57°13' E 011°30'1 2.6
2018-Feb-19 14:30N 57°12' E 011°32'4 2.2
2018-Feb-19 12:34N 57°17' E 011°35'0 2.6
2018-Feb-19 12:30N 57°17' E 011°35'1 2.5
2018-Feb-19 11:56N 57°18' E 011°35'1 2.8
2018-Feb-19 11:30N 57°19' E 011°34'0 0.7
2018-Feb-19 11:00N 57°19' E 011°35'1 2.5
2018-Feb-19 10:30N 57°18' E 011°35'1 2.5
2018-Feb-19 10:00N 57°16' E 011°35'1 2.5
2018-Feb-19 09:30N 57°15' E 011°36'1 2.5
2018-Feb-19 08:59N 57°14' E 011°36'2 2.3
2018-Feb-19 08:07N 57°12' E 011°34'0 2.6
2018-Feb-19 08:00N 57°12' E 011°34'1 2.6
2018-Feb-19 07:29N 57°12' E 011°32'9 4.1
2018-Feb-19 05:24N 57°17' E 011°19'6 7.5
2018-Feb-19 04:40N 57°20' E 011°11'1 8.0
2018-Feb-19 04:30N 57°20' E 011°09'1 2.6
2018-Feb-19 03:59N 57°19' E 011°08'0 0.0
2018-Feb-19 03:25N 57°19' E 011°08'0 0.0
2018-Feb-19 02:57N 57°19' E 011°08'0 0.0
2018-Feb-19 01:15N 57°19' E 011°08'0 0.0
2018-Feb-19 00:58N 57°19' E 011°08'0 0.0
2018-Feb-18 23:25N 57°19' E 011°08'0 0.0
2018-Feb-18 21:17N 57°19' E 011°08'0 0.0
2018-Feb-18 20:47N 57°19' E 011°08'0 0.0
2018-Feb-18 17:26N 57°19' E 011°08'0 0.0
2018-Feb-18 15:29N 57°19' E 011°08'0 0.0
2018-Feb-18 13:51N 57°19' E 011°08'0 0.0
2018-Feb-18 13:28N 57°19' E 011°08'0 0.0
2018-Feb-18 12:58N 57°19' E 011°08'0 0.0
2018-Feb-18 12:30N 57°19' E 011°08'0 0.0
2018-Feb-18 11:50N 57°19' E 011°08'0 0.0
2018-Feb-18 11:29N 57°19' E 011°08'0 0.0
2018-Feb-18 10:40N 57°19' E 011°08'0 0.0
2018-Feb-18 10:19N 57°19' E 011°08'0 0.0
2018-Feb-18 10:00N 57°19' E 011°08'0 0.0
2018-Feb-18 09:24N 57°19' E 011°08'0 0.0
2018-Feb-18 08:52N 57°19' E 011°08'0 0.0
2018-Feb-18 08:27N 57°19' E 011°08'0 0.0
2018-Feb-18 07:59N 57°19' E 011°08'0 0.0
2018-Feb-18 07:29N 57°19' E 011°08'0 0.0
2018-Feb-18 06:55N 57°19' E 011°08'0 0.0
2018-Feb-18 06:30N 57°19' E 011°08'0 0.0
2018-Feb-18 06:00N 57°19' E 011°08'0 0.0
2018-Feb-18 05:30N 57°19' E 011°08'0 0.0
2018-Feb-18 05:00N 57°19' E 011°08'0 0.0
2018-Feb-18 04:30N 57°19' E 011°08'0 0.0
2018-Feb-18 04:00N 57°19' E 011°08'0 0.0
2018-Feb-18 03:29N 57°19' E 011°08'0 0.0
2018-Feb-18 03:00N 57°19' E 011°08'0 0.0
2018-Feb-18 02:30N 57°19' E 011°08'0 0.0
2018-Feb-18 02:00N 57°19' E 011°08'0 0.0
2018-Feb-18 01:30N 57°19' E 011°08'0 0.0
2018-Feb-18 01:00N 57°19' E 011°08'0 0.0
2018-Feb-18 00:30N 57°19' E 011°08'0 0.0
2018-Feb-18 00:00N 57°19' E 011°08'0 0.0
2018-Feb-17 23:30N 57°19' E 011°08'0 0.0
2018-Feb-17 23:00N 57°19' E 011°08'0 0.0
2018-Feb-17 22:29N 57°19' E 011°08'0 0.0
2018-Feb-17 22:00N 57°19' E 011°08'0 0.0
2018-Feb-17 21:30N 57°19' E 011°08'0 0.0
2018-Feb-17 20:57N 57°19' E 011°08'0 0.0
2018-Feb-17 18:56N 57°19' E 011°08'0 0.0
2018-Feb-17 18:25N 57°19' E 011°08'0 0.0
2018-Feb-17 16:45N 57°19' E 011°08'0 0.0
2018-Feb-17 16:30N 57°19' E 011°08'0 0.0
2018-Feb-17 15:56N 57°19' E 011°08'0 0.0
2018-Feb-17 15:27N 57°19' E 011°08'0 0.0
2018-Feb-17 14:46N 57°19' E 011°08'0 0.0
2018-Feb-17 14:30N 57°19' E 011°08'0 0.0
2018-Feb-17 14:00N 57°19' E 011°08'0 0.0
2018-Feb-17 13:30N 57°19' E 011°08'0 0.0
2018-Feb-17 13:00N 57°19' E 011°08'0 0.0
2018-Feb-17 12:30N 57°19' E 011°08'0 0.0
2018-Feb-17 11:56N 57°19' E 011°08'0 0.0
2018-Feb-17 11:30N 57°19' E 011°08'0 0.0
2018-Feb-17 11:00N 57°19' E 011°08'0 0.0
2018-Feb-17 10:30N 57°19' E 011°08'0 0.0
2018-Feb-17 09:56N 57°19' E 011°08'0 0.0
2018-Feb-17 09:29N 57°19' E 011°08'0 0.0
2018-Feb-17 09:00N 57°19' E 011°08'0 0.0
2018-Feb-17 08:29N 57°19' E 011°08'0 0.0
2018-Feb-17 08:00N 57°19' E 011°08'0 0.0
2018-Feb-17 07:30N 57°19' E 011°08'0 0.0
2018-Feb-17 07:00N 57°19' E 011°08'0 0.0
2018-Feb-17 06:30N 57°19' E 011°08'0 0.0
2018-Feb-17 06:00N 57°19' E 011°08'0 0.0
2018-Feb-17 05:29N 57°19' E 011°08'0 0.0
2018-Feb-17 05:00N 57°19' E 011°08'0 0.0
2018-Feb-17 04:26N 57°19' E 011°08'0 0.0
2018-Feb-17 03:58N 57°19' E 011°08'0 0.0
2018-Feb-17 03:30N 57°19' E 011°08'0 0.0
2018-Feb-17 02:55N 57°19' E 011°08'0 0.0
2018-Feb-17 02:30N 57°19' E 011°08'0 0.0
2018-Feb-17 02:00N 57°19' E 011°08'0 0.0
2018-Feb-17 01:30N 57°19' E 011°08'0 0.0
2018-Feb-17 00:57N 57°19' E 011°08'0 0.0
2018-Feb-17 00:23N 57°19' E 011°08'0 0.0
2018-Feb-16 23:59N 57°19' E 011°08'0 0.0
2018-Feb-16 23:28N 57°19' E 011°08'0 0.0
2018-Feb-16 22:47N 57°19' E 011°08'0 0.0
2018-Feb-16 22:27N 57°19' E 011°08'0 0.0
2018-Feb-16 21:49N 57°19' E 011°08'0 0.0
2018-Feb-16 21:28N 57°19' E 011°08'0 0.0
2018-Feb-16 20:54N 57°19' E 011°08'0 0.0
2018-Feb-16 20:26N 57°19' E 011°08'0 0.0
2018-Feb-16 18:17N 57°19' E 011°08'0 0.0
2018-Feb-16 17:35N 57°19' E 011°08'0 0.0
2018-Feb-16 16:55N 57°19' E 011°08'0 0.0
2018-Feb-16 16:20N 57°19' E 011°08'0 0.0
2018-Feb-16 15:53N 57°19' E 011°08'0 0.0
2018-Feb-16 15:22N 57°19' E 011°08'0 0.0
2018-Feb-16 14:48N 57°19' E 011°08'0 0.0
2018-Feb-16 14:29N 57°19' E 011°08'0 0.0
2018-Feb-16 13:58N 57°19' E 011°08'2 3.8
2018-Feb-16 13:30N 57°20' E 011°10'4 7.3
2018-Feb-16 12:57N 57°19' E 011°17'2 5.1
2018-Feb-16 12:30N 57°17' E 011°20'1 1.2
2018-Feb-16 12:00N 57°17' E 011°21'3 2.3
2018-Feb-16 10:52N 57°15' E 011°24'1 2.5
2018-Feb-16 10:28N 57°15' E 011°26'1 2.5
2018-Feb-16 09:56N 57°15' E 011°28'1 2.4
2018-Feb-16 09:30N 57°15' E 011°30'4 1.9
2018-Feb-16 07:30N 57°18' E 011°27'2 2.4
2018-Feb-16 06:36N 57°19' E 011°23'1 2.4
2018-Feb-16 06:22N 57°20' E 011°22'2 4.5
2018-Feb-16 06:00N 57°20' E 011°19'5 9.2
2018-Feb-16 05:30N 57°21' E 011°11'2 4.0
2018-Feb-16 04:57N 57°19' E 011°08'1 0.0
2018-Feb-14 15:40N 57°20' E 011°06'0 0.7
2018-Feb-14 15:26N 57°20' E 011°06'1 1.4
2018-Feb-14 14:49N 57°21' E 011°08'2 7.4
2018-Feb-14 14:30N 57°21' E 011°12'4 8.1
2018-Feb-14 14:00N 57°21' E 011°19'4 8.4
2018-Feb-14 13:30N 57°21' E 011°27'3 5.0
2018-Feb-14 13:00N 57°21' E 011°32'1 1.3
2018-Feb-14 12:30N 57°20' E 011°32'1 2.5
2018-Feb-14 12:00N 57°19' E 011°34'1 2.6
2018-Feb-14 11:30N 57°18' E 011°34'1 2.6
2018-Feb-14 11:00N 57°17' E 011°35'1 2.3
2018-Feb-14 10:28N 57°16' E 011°36'1 2.6
2018-Feb-14 10:00N 57°15' E 011°38'1 2.6
2018-Feb-14 09:30N 57°13' E 011°37'16 3.5
2018-Feb-14 04:53N 57°21' E 011°10'  
Track history (hours):
 
Tides and Currents Weather Stations Pressure Air Temp Water Temp Dewpoint Dewpoint Depression Visibility Wind Speed Wind Dir Waves Ship Positions

Fn204 Danzig

Last reported at 2018-Feb-23 18:55 UTC. Time now 2018-Feb-24 09:57 UTC.
Position N 57°19' E 011°08'.

Length 16 m.

Type: Fishing. MMSI: 220046000.

Date/timePositionNaut miles runAvg speedWind from/ knotsBaromVisibWave heightAir tempDewpointWater temp
2018-Feb-23 18:55N 57°19' E 011°08'1 2.3
2018-Feb-23 18:25N 57°20' E 011°08'3 7.0
2018-Feb-23 18:00N 57°22' E 011°13'3 5.7
2018-Feb-23 17:30N 57°22' E 011°18'3 5.4
2018-Feb-23 17:00N 57°23' E 011°23'3 5.4
2018-Feb-23 16:30N 57°24' E 011°28'1 2.3
2018-Feb-23 16:00N 57°23' E 011°30'1 1.9
2018-Feb-23 15:30N 57°23' E 011°30'1 2.5
2018-Feb-23 15:00N 57°21' E 011°31'1 2.4
2018-Feb-23 14:30N 57°21' E 011°33'1 2.3
2018-Feb-23 14:00N 57°19' E 011°33'1 2.5
2018-Feb-23 13:30N 57°19' E 011°31'1 2.5
2018-Feb-23 13:00N 57°18' E 011°29'1 2.4
2018-Feb-23 12:30N 57°17' E 011°30'1 2.4
2018-Feb-23 12:00N 57°16' E 011°29'1 1.7
2018-Feb-23 11:29N 57°15' E 011°28'1 1.3
2018-Feb-23 11:00N 57°15' E 011°27'1 2.5
2018-Feb-23 10:27N 57°14' E 011°26'2 2.1
2018-Feb-23 09:17N 57°12' E 011°29'3 1.6
2018-Feb-23 07:36N 57°14' E 011°26'0 2.6
2018-Feb-23 07:29N 57°14' E 011°26'1 1.2
2018-Feb-23 06:38N 57°15' E 011°25'0 2.5
2018-Feb-23 06:26N 57°15' E 011°24'4 4.0
2018-Feb-23 05:27N 57°17' E 011°18'6 7.1
2018-Feb-23 04:39N 57°20' E 011°10'1 7.0
2018-Feb-23 04:30N 57°20' E 011°08'1 0.1
2018-Feb-22 17:48N 57°21' E 011°09'2 7.9
2018-Feb-22 17:30N 57°22' E 011°14'4 8.0
2018-Feb-22 17:00N 57°23' E 011°21'4 7.8
2018-Feb-22 16:30N 57°24' E 011°28'1 2.3
2018-Feb-22 16:00N 57°24' E 011°30'1 2.4
2018-Feb-22 15:30N 57°23' E 011°30'1 2.5
2018-Feb-22 15:00N 57°22' E 011°31'1 2.5
2018-Feb-22 14:30N 57°21' E 011°32'1 2.4
2018-Feb-22 14:00N 57°20' E 011°33'1 2.5
2018-Feb-22 13:30N 57°19' E 011°33'1 2.5
2018-Feb-22 13:00N 57°17' E 011°32'1 2.5
2018-Feb-22 12:30N 57°16' E 011°31'1 2.5
2018-Feb-22 12:00N 57°15' E 011°29'1 1.9
2018-Feb-22 11:30N 57°15' E 011°28'1 1.8
2018-Feb-22 10:48N 57°15' E 011°26'1 2.5
2018-Feb-22 10:30N 57°15' E 011°24'2 2.5
2018-Feb-22 09:47N 57°13' E 011°23'1 2.5
2018-Feb-22 09:30N 57°13' E 011°24'1 2.2
2018-Feb-22 08:49N 57°13' E 011°26'1 2.6
2018-Feb-22 08:26N 57°14' E 011°27'2 2.6
2018-Feb-22 07:42N 57°15' E 011°29'0 1.7
2018-Feb-22 07:30N 57°16' E 011°29'2 2.3
2018-Feb-22 06:35N 57°15' E 011°26'0 2.5
2018-Feb-22 06:29N 57°15' E 011°25'1 2.6
2018-Feb-22 05:59N 57°14' E 011°23'10 6.8
2018-Feb-22 04:28N 57°21' E 011°09'0 0.0
2018-Feb-21 18:01N 57°20' E 011°09'0 8.4
2018-Feb-21 18:00N 57°20' E 011°09'5 8.1
2018-Feb-21 17:25N 57°18' E 011°17'4 7.8
2018-Feb-21 16:57N 57°17' E 011°23'3 6.2
2018-Feb-21 16:28N 57°16' E 011°28'1 1.3
2018-Feb-21 16:00N 57°15' E 011°28'1 2.4
2018-Feb-21 15:28N 57°15' E 011°26'1 2.3
2018-Feb-21 14:54N 57°14' E 011°24'1 2.4
2018-Feb-21 14:25N 57°13' E 011°23'2 1.7
2018-Feb-21 13:12N 57°14' E 011°26'1 2.5
2018-Feb-21 13:00N 57°14' E 011°27'1 2.5
2018-Feb-21 12:30N 57°15' E 011°29'0 0.9
2018-Feb-21 12:00N 57°15' E 011°29'2 1.4
2018-Feb-21 10:48N 57°15' E 011°26'1 2.5
2018-Feb-21 10:30N 57°15' E 011°24'2 2.4
2018-Feb-21 09:50N 57°13' E 011°23'1 2.2
2018-Feb-21 09:27N 57°13' E 011°24'2 2.2
2018-Feb-21 08:21N 57°14' E 011°27'1 2.5
2018-Feb-21 08:00N 57°15' E 011°28'1 1.9
2018-Feb-21 07:30N 57°16' E 011°29'2 2.3
2018-Feb-21 06:37N 57°15' E 011°26'0 2.5
2018-Feb-21 06:28N 57°15' E 011°25'1 2.5
2018-Feb-21 05:58N 57°14' E 011°23'4 6.5
2018-Feb-21 05:22N 57°17' E 011°18'4 7.6
2018-Feb-21 04:47N 57°20' E 011°13'2 7.7
2018-Feb-21 04:30N 57°21' E 011°09'1 0.0
2018-Feb-20 17:41N 57°21' E 011°10'2 7.8
2018-Feb-20 17:29N 57°21' E 011°13'4 8.2
2018-Feb-20 17:00N 57°21' E 011°20'4 7.8
2018-Feb-20 16:30N 57°20' E 011°27'1 2.4
2018-Feb-20 16:00N 57°20' E 011°29'1 2.5
2018-Feb-20 15:30N 57°20' E 011°31'1 2.4
2018-Feb-20 15:00N 57°19' E 011°33'1 2.6
2018-Feb-20 14:30N 57°18' E 011°35'1 2.6
2018-Feb-20 14:00N 57°17' E 011°37'1 2.5
2018-Feb-20 13:30N 57°16' E 011°38'1 2.5
2018-Feb-20 13:00N 57°15' E 011°37'2 2.0
2018-Feb-20 11:50N 57°15' E 011°33'0 0.3
2018-Feb-20 11:30N 57°15' E 011°33'2 2.3
2018-Feb-20 10:50N 57°14' E 011°36'1 2.5
2018-Feb-20 10:30N 57°15' E 011°37'1 2.6
2018-Feb-20 10:00N 57°16' E 011°38'3 2.5
2018-Feb-20 08:44N 57°18' E 011°35'1 2.6
2018-Feb-20 08:30N 57°19' E 011°34'1 2.6
2018-Feb-20 07:59N 57°20' E 011°32'1 2.5
2018-Feb-20 07:30N 57°20' E 011°30'1 2.6
2018-Feb-20 07:00N 57°21' E 011°28'1 2.5
2018-Feb-20 06:30N 57°21' E 011°26'1 2.5
2018-Feb-20 06:00N 57°21' E 011°23'1 2.4
2018-Feb-20 05:30N 57°21' E 011°21'4 6.7
2018-Feb-20 04:55N 57°21' E 011°14'3 6.7
2018-Feb-20 04:29N 57°21' E 011°09'1 2.9
2018-Feb-20 04:00N 57°19' E 011°08'0 0.0
2018-Feb-19 22:05N 57°19' E 011°08'2 0.4
2018-Feb-19 17:35N 57°20' E 011°10'1 8.4
2018-Feb-19 17:30N 57°20' E 011°11'4 8.6
2018-Feb-19 17:00N 57°18' E 011°18'5 8.6
2018-Feb-19 16:26N 57°15' E 011°25'1 3.1
2018-Feb-19 15:59N 57°14' E 011°27'2 2.3
2018-Feb-19 15:10N 57°13' E 011°29'0 2.6
2018-Feb-19 15:00N 57°13' E 011°30'1 2.6
2018-Feb-19 14:30N 57°12' E 011°32'4 2.2
2018-Feb-19 12:34N 57°17' E 011°35'0 2.6
2018-Feb-19 12:30N 57°17' E 011°35'1 2.5
2018-Feb-19 11:56N 57°18' E 011°35'1 2.8
2018-Feb-19 11:30N 57°19' E 011°34'0 0.7
2018-Feb-19 11:00N 57°19' E 011°35'1 2.5
2018-Feb-19 10:30N 57°18' E 011°35'1 2.5
2018-Feb-19 10:00N 57°16' E 011°35'1 2.5
2018-Feb-19 09:30N 57°15' E 011°36'1 2.5
2018-Feb-19 08:59N 57°14' E 011°36'2 2.3
2018-Feb-19 08:07N 57°12' E 011°34'0 2.6
2018-Feb-19 08:00N 57°12' E 011°34'1 2.6
2018-Feb-19 07:29N 57°12' E 011°32'9 4.1
2018-Feb-19 05:24N 57°17' E 011°19'6 7.5
2018-Feb-19 04:40N 57°20' E 011°11'1 8.0
2018-Feb-19 04:30N 57°20' E 011°09'1 2.6
2018-Feb-19 03:59N 57°19' E 011°08'0 0.0
2018-Feb-19 03:25N 57°19' E 011°08'0 0.0
2018-Feb-19 02:57N 57°19' E 011°08'0 0.0
2018-Feb-19 01:15N 57°19' E 011°08'0 0.0
2018-Feb-19 00:58N 57°19' E 011°08'0 0.0
2018-Feb-18 23:25N 57°19' E 011°08'0 0.0
2018-Feb-18 21:17N 57°19' E 011°08'0 0.0
2018-Feb-18 20:47N 57°19' E 011°08'0 0.0
2018-Feb-18 17:26N 57°19' E 011°08'0 0.0
2018-Feb-18 15:29N 57°19' E 011°08'0 0.0
2018-Feb-18 13:51N 57°19' E 011°08'0 0.0
2018-Feb-18 13:28N 57°19' E 011°08'0 0.0
2018-Feb-18 12:58N 57°19' E 011°08'0 0.0
2018-Feb-18 12:30N 57°19' E 011°08'0 0.0
2018-Feb-18 11:50N 57°19' E 011°08'0 0.0
2018-Feb-18 11:29N 57°19' E 011°08'0 0.0
2018-Feb-18 10:40N 57°19' E 011°08'0 0.0
2018-Feb-18 10:19N 57°19' E 011°08'0 0.0
2018-Feb-18 10:00N 57°19' E 011°08'0 0.0
2018-Feb-18 09:24N 57°19' E 011°08'0 0.0
2018-Feb-18 08:52N 57°19' E 011°08'0 0.0
2018-Feb-18 08:27N 57°19' E 011°08'0 0.0
2018-Feb-18 07:59N 57°19' E 011°08'0 0.0
2018-Feb-18 07:29N 57°19' E 011°08'0 0.0
2018-Feb-18 06:55N 57°19' E 011°08'0 0.0
2018-Feb-18 06:30N 57°19' E 011°08'0 0.0
2018-Feb-18 06:00N 57°19' E 011°08'0 0.0
2018-Feb-18 05:30N 57°19' E 011°08'0 0.0
2018-Feb-18 05:00N 57°19' E 011°08'0 0.0
2018-Feb-18 04:30N 57°19' E 011°08'0 0.0
2018-Feb-18 04:00N 57°19' E 011°08'0 0.0
2018-Feb-18 03:29N 57°19' E 011°08'0 0.0
2018-Feb-18 03:00N 57°19' E 011°08'0 0.0
2018-Feb-18 02:30N 57°19' E 011°08'0 0.0
2018-Feb-18 02:00N 57°19' E 011°08'0 0.0
2018-Feb-18 01:30N 57°19' E 011°08'0 0.0
2018-Feb-18 01:00N 57°19' E 011°08'0 0.0
2018-Feb-18 00:30N 57°19' E 011°08'0 0.0
2018-Feb-18 00:00N 57°19' E 011°08'0 0.0
2018-Feb-17 23:30N 57°19' E 011°08'0 0.0
2018-Feb-17 23:00N 57°19' E 011°08'0 0.0
2018-Feb-17 22:29N 57°19' E 011°08'0 0.0
2018-Feb-17 22:00N 57°19' E 011°08'0 0.0
2018-Feb-17 21:30N 57°19' E 011°08'0 0.0
2018-Feb-17 20:57N 57°19' E 011°08'0 0.0
2018-Feb-17 18:56N 57°19' E 011°08'0 0.0
2018-Feb-17 18:25N 57°19' E 011°08'0 0.0
2018-Feb-17 16:45N 57°19' E 011°08'0 0.0
2018-Feb-17 16:30N 57°19' E 011°08'0 0.0
2018-Feb-17 15:56N 57°19' E 011°08'0 0.0
2018-Feb-17 15:27N 57°19' E 011°08'0 0.0
2018-Feb-17 14:46N 57°19' E 011°08'0 0.0
2018-Feb-17 14:30N 57°19' E 011°08'0 0.0
2018-Feb-17 14:00N 57°19' E 011°08'0 0.0
2018-Feb-17 13:30N 57°19' E 011°08'0 0.0
2018-Feb-17 13:00N 57°19' E 011°08'0 0.0
2018-Feb-17 12:30N 57°19' E 011°08'0 0.0
2018-Feb-17 11:56N 57°19' E 011°08'0 0.0
2018-Feb-17 11:30N 57°19' E 011°08'0 0.0
2018-Feb-17 11:00N 57°19' E 011°08'0 0.0
2018-Feb-17 10:30N 57°19' E 011°08'0 0.0
2018-Feb-17 09:56N 57°19' E 011°08'0 0.0
2018-Feb-17 09:29N 57°19' E 011°08'0 0.0
2018-Feb-17 09:00N 57°19' E 011°08'0 0.0
2018-Feb-17 08:29N 57°19' E 011°08'0 0.0
2018-Feb-17 08:00N 57°19' E 011°08'0 0.0
2018-Feb-17 07:30N 57°19' E 011°08'0 0.0
2018-Feb-17 07:00N 57°19' E 011°08'0 0.0
2018-Feb-17 06:30N 57°19' E 011°08'0 0.0
2018-Feb-17 06:00N 57°19' E 011°08'0 0.0
2018-Feb-17 05:29N 57°19' E 011°08'0 0.0
2018-Feb-17 05:00N 57°19' E 011°08'0 0.0
2018-Feb-17 04:26N 57°19' E 011°08'0 0.0
2018-Feb-17 03:58N 57°19' E 011°08'0 0.0
2018-Feb-17 03:30N 57°19' E 011°08'0 0.0
2018-Feb-17 02:55N 57°19' E 011°08'0 0.0
2018-Feb-17 02:30N 57°19' E 011°08'0 0.0
2018-Feb-17 02:00N 57°19' E 011°08'0 0.0
2018-Feb-17 01:30N 57°19' E 011°08'0 0.0
2018-Feb-17 00:57N 57°19' E 011°08'0 0.0
2018-Feb-17 00:23N 57°19' E 011°08'0 0.0
2018-Feb-16 23:59N 57°19' E 011°08'0 0.0
2018-Feb-16 23:28N 57°19' E 011°08'0 0.0
2018-Feb-16 22:47N 57°19' E 011°08'0 0.0
2018-Feb-16 22:27N 57°19' E 011°08'0 0.0
2018-Feb-16 21:49N 57°19' E 011°08'0 0.0
2018-Feb-16 21:28N 57°19' E 011°08'0 0.0
2018-Feb-16 20:54N 57°19' E 011°08'0 0.0
2018-Feb-16 20:26N 57°19' E 011°08'0 0.0
2018-Feb-16 18:17N 57°19' E 011°08'0 0.0
2018-Feb-16 17:35N 57°19' E 011°08'0 0.0
2018-Feb-16 16:55N 57°19' E 011°08'0 0.0
2018-Feb-16 16:20N 57°19' E 011°08'0 0.0
2018-Feb-16 15:53N 57°19' E 011°08'0 0.0
2018-Feb-16 15:22N 57°19' E 011°08'0 0.0
2018-Feb-16 14:48N 57°19' E 011°08'0 0.0
2018-Feb-16 14:29N 57°19' E 011°08'0 0.0
2018-Feb-16 13:58N 57°19' E 011°08'2 3.8
2018-Feb-16 13:30N 57°20' E 011°10'4 7.3
2018-Feb-16 12:57N 57°19' E 011°17'2 5.1
2018-Feb-16 12:30N 57°17' E 011°20'1 1.2
2018-Feb-16 12:00N 57°17' E 011°21'3 2.3
2018-Feb-16 10:52N 57°15' E 011°24'1 2.5
2018-Feb-16 10:28N 57°15' E 011°26'1 2.5
2018-Feb-16 09:56N 57°15' E 011°28'1 2.4
2018-Feb-16 09:30N 57°15' E 011°30'4 1.9
2018-Feb-16 07:30N 57°18' E 011°27'2 2.4
2018-Feb-16 06:36N 57°19' E 011°23'1 2.4
2018-Feb-16 06:22N 57°20' E 011°22'2 4.5
2018-Feb-16 06:00N 57°20' E 011°19'5 9.2
2018-Feb-16 05:30N 57°21' E 011°11'2 4.0
2018-Feb-16 04:57N 57°19' E 011°08'1 0.0
2018-Feb-14 15:40N 57°20' E 011°06'0 0.7
2018-Feb-14 15:26N 57°20' E 011°06'1 1.4
2018-Feb-14 14:49N 57°21' E 011°08'2 7.4
2018-Feb-14 14:30N 57°21' E 011°12'4 8.1
2018-Feb-14 14:00N 57°21' E 011°19'4 8.4
2018-Feb-14 13:30N 57°21' E 011°27'3 5.0
2018-Feb-14 13:00N 57°21' E 011°32'1 1.3
2018-Feb-14 12:30N 57°20' E 011°32'1 2.5
2018-Feb-14 12:00N 57°19' E 011°34'1 2.6
2018-Feb-14 11:30N 57°18' E 011°34'1 2.6
2018-Feb-14 11:00N 57°17' E 011°35'1 2.3
2018-Feb-14 10:28N 57°16' E 011°36'1 2.6
2018-Feb-14 10:00N 57°15' E 011°38'1 2.6
2018-Feb-14 09:30N 57°13' E 011°37'16 3.5
2018-Feb-14 04:53N 57°21' E 011°10'  

Dump ship's entire track history